Kilgore, Texas
Current Conditions -  °F | °C
As of 1:53 PM on Friday 24 Oct 2014 (Local Time) from KGGG Reporting Station
Clear Clear  
Wind Chill: 77°   Ceiling: Unl
Heat Index: 78°   Visibility: 10mi
Dew Point: 53°   Wind: 0mph
Humidity: 43%   Direction: NA
Pressure: 30.13"   Gusts: NA
Location:  32.38°N, 94.87°W
Report Text: KGGG 241853Z 00000KT 10SM CLR 25/12 A3013 RMK AO2 SLP199 T02500117
Loading
Personal Weather Stations






























Interactive Weather Map
Tropical Storm Tracking
New forecast layout! Learn more

10-Day Weather Forecast

Advertisements
Track Severe Weather on mobile